Solis — ZGFD7 — position and weather

sailwx.info

Track history (hours):
 
Tides and Currents Weather Stations Pressure Air Temp Water Temp Dewpoint Dewpoint Depression Visibility Wind Speed Wind Dir Waves Ship Positions

Solis

Last reported at 2017-Sep-10 20:57 UTC. Time now 2017-Sep-26 22:04 UTC.
Position N 43°20' E 004°09'.
Warning: this ship's position is 16 days out of date.

Length 34 m; draft 2.5 m.

Type: Pleasure craft. MMSI: 319086800.

Date/timePositionNaut miles runAvg speedWind from/ knotsBaromVisibWave heightAir tempDewpointWater temp
2017-Sep-10 20:57N 43°20' E 004°09'510.3
2017-Sep-10 20:31N 43°20' E 004°16'5 9.7
2017-Sep-10 20:00N 43°19' E 004°22'5 9.6
2017-Sep-10 19:30N 43°17' E 004°28'5 9.5
2017-Sep-10 19:01N 43°16' E 004°34'5 9.9
2017-Sep-10 18:30N 43°17' E 004°41'510.1
2017-Sep-10 18:00N 43°17' E 004°48'510.3
2017-Sep-10 17:30N 43°18' E 004°55'510.1
2017-Sep-10 17:01N 43°18' E 005°02'86 8.5
2017-Sep-10 06:54N 43°21' E 006°59'511.6
2017-Sep-10 06:31N 43°24' E 007°04'611.7
2017-Sep-10 06:00N 43°27' E 007°11'7810.9
2017-Sep-09 22:52N 43°12' E 008°56'337 8.1
2017-Sep-08 05:27N 38°30' E 013°00'510.2
2017-Sep-08 04:59N 38°29' E 013°06'710.3
2017-Sep-08 04:18N 38°29' E 013°15'310.4
2017-Sep-08 03:59N 38°28' E 013°19'510.4
2017-Sep-08 03:31N 38°28' E 013°26'510.4
2017-Sep-08 03:00N 38°27' E 013°32'610.4
2017-Sep-08 02:28N 38°26' E 013°39'6410.5
2017-Sep-07 20:21N 38°20' E 015°01'411.1
2017-Sep-07 20:00N 38°21' E 015°05'611.1
2017-Sep-07 19:26N 38°21' E 015°14'510.9
2017-Sep-07 19:01N 38°21' E 015°20'510.9
2017-Sep-07 18:31N 38°20' E 015°26'510.5
2017-Sep-07 18:00N 38°19' E 015°33'7 8.4
2017-Sep-07 17:08N 38°16' E 015°41'111.3
2017-Sep-07 17:00N 38°15' E 015°39'510.9
2017-Sep-07 16:30N 38°10' E 015°37'611.0
2017-Sep-07 16:00N 38°04' E 015°37'8 9.7
2017-Sep-07 15:09N 37°56' E 015°40'356 9.8
2017-Sep-06 02:46N 37°53' E 023°12'410.3
2017-Sep-06 02:25N 37°53' E 023°17'4 9.7
2017-Sep-06 02:00N 37°52' E 023°22'5 9.9
2017-Sep-06 01:30N 37°50' E 023°27'5 9.7
2017-Sep-06 01:00N 37°48' E 023°33'5 9.6
2017-Sep-06 00:30N 37°45' E 023°37'510.1
2017-Sep-06 00:00N 37°40' E 023°39'  
Track history (hours):
 
Tides and Currents Weather Stations Pressure Air Temp Water Temp Dewpoint Dewpoint Depression Visibility Wind Speed Wind Dir Waves Ship Positions

Solis

Last reported at 2017-Sep-10 20:57 UTC. Time now 2017-Sep-26 22:04 UTC.
Position N 43°20' E 004°09'.
Warning: this ship's position is 16 days out of date.

Length 34 m; draft 2.5 m.

Type: Pleasure craft. MMSI: 319086800.

Date/timePositionNaut miles runAvg speedWind from/ knotsBaromVisibWave heightAir tempDewpointWater temp
2017-Sep-10 20:57N 43°20' E 004°09'510.3
2017-Sep-10 20:31N 43°20' E 004°16'5 9.7
2017-Sep-10 20:00N 43°19' E 004°22'5 9.6
2017-Sep-10 19:30N 43°17' E 004°28'5 9.5
2017-Sep-10 19:01N 43°16' E 004°34'5 9.9
2017-Sep-10 18:30N 43°17' E 004°41'510.1
2017-Sep-10 18:00N 43°17' E 004°48'510.3
2017-Sep-10 17:30N 43°18' E 004°55'510.1
2017-Sep-10 17:01N 43°18' E 005°02'86 8.5
2017-Sep-10 06:54N 43°21' E 006°59'511.6
2017-Sep-10 06:31N 43°24' E 007°04'611.7
2017-Sep-10 06:00N 43°27' E 007°11'7810.9
2017-Sep-09 22:52N 43°12' E 008°56'337 8.1
2017-Sep-08 05:27N 38°30' E 013°00'510.2
2017-Sep-08 04:59N 38°29' E 013°06'710.3
2017-Sep-08 04:18N 38°29' E 013°15'310.4
2017-Sep-08 03:59N 38°28' E 013°19'510.4
2017-Sep-08 03:31N 38°28' E 013°26'510.4
2017-Sep-08 03:00N 38°27' E 013°32'610.4
2017-Sep-08 02:28N 38°26' E 013°39'6410.5
2017-Sep-07 20:21N 38°20' E 015°01'411.1
2017-Sep-07 20:00N 38°21' E 015°05'611.1
2017-Sep-07 19:26N 38°21' E 015°14'510.9
2017-Sep-07 19:01N 38°21' E 015°20'510.9
2017-Sep-07 18:31N 38°20' E 015°26'510.5
2017-Sep-07 18:00N 38°19' E 015°33'7 8.4
2017-Sep-07 17:08N 38°16' E 015°41'111.3
2017-Sep-07 17:00N 38°15' E 015°39'510.9
2017-Sep-07 16:30N 38°10' E 015°37'611.0
2017-Sep-07 16:00N 38°04' E 015°37'8 9.7
2017-Sep-07 15:09N 37°56' E 015°40'356 9.8
2017-Sep-06 02:46N 37°53' E 023°12'410.3
2017-Sep-06 02:25N 37°53' E 023°17'4 9.7
2017-Sep-06 02:00N 37°52' E 023°22'5 9.9
2017-Sep-06 01:30N 37°50' E 023°27'5 9.7
2017-Sep-06 01:00N 37°48' E 023°33'5 9.6
2017-Sep-06 00:30N 37°45' E 023°37'510.1
2017-Sep-06 00:00N 37°40' E 023°39'  

Dump ship's entire track history